Time;durP1;ratioP1;P1;durP2;ratioP2;P2;SDS_P1;SDS_P2;PMS_P1;PMS_P2;Temp;Humidity;BMP_temperature;BMP_pressure;BME280_temperature;BME280_humidity;BME280_pressure;Samples;Min_cycle;Max_cycle;Signal;HPM_P1;HPM_P2
2023/06/18 04:02:41;;;;;;;8.70;7.87;;;14.70;99.90;;;;;;4906017;29;20514;-73
2023/06/18 04:05:08;;;;;;;9.33;8.00;;;14.80;99.90;;;;;;4912912;29;21682;-74
2023/06/18 04:07:35;;;;;;;8.83;7.13;;;14.80;99.90;;;;;;4913818;29;20470;-74
2023/06/18 04:10:02;;;;;;;6.57;5.97;;;14.90;99.90;;;;;;4913320;29;20481;-76
2023/06/18 04:12:28;;;;;;;7.70;6.90;;;15.00;99.90;;;;;;4904152;29;21039;-74
2023/06/18 04:14:55;;;;;;;5.93;5.50;;;15.00;99.90;;;;;;4956838;23;21018;-72
2023/06/18 04:17:22;;;;;;;7.73;6.90;;;15.00;99.90;;;;;;4969154;28;20858;-71
2023/06/18 04:19:50;;;;;;;6.53;6.10;;;15.10;99.90;;;;;;4969445;28;20552;-72
2023/06/18 04:22:17;;;;;;;8.73;6.90;;;15.20;99.90;;;;;;4970662;28;20459;-72
2023/06/18 04:24:43;;;;;;;8.60;7.97;;;15.60;99.90;;;;;;4963366;28;20487;-71
2023/06/18 04:27:10;;;;;;;6.40;5.90;;;16.20;99.90;;;;;;4967626;28;20593;-71
2023/06/18 04:29:37;;;;;;;6.90;6.37;;;16.80;99.90;;;;;;4964422;28;20479;-72
2023/06/18 04:32:04;;;;;;;6.57;6.07;;;17.50;99.90;;;;;;4969366;28;20471;-72
2023/06/18 04:34:30;;;;;;;9.23;6.20;;;18.10;99.90;;;;;;4969751;28;20496;-71
2023/06/18 04:36:58;;;;;;;7.00;6.40;;;18.60;99.90;;;;;;4970485;28;20475;-71
2023/06/18 04:39:25;;;;;;;6.50;6.00;;;19.10;99.90;;;;;;4969907;28;20474;-69
2023/06/18 04:41:52;;;;;;;6.37;5.97;;;19.50;99.90;;;;;;4970245;28;20471;-70
2023/06/18 04:44:19;;;;;;;7.00;6.50;;;19.90;99.90;;;;;;4969960;28;20492;-70
2023/06/18 04:46:45;;;;;;;6.70;6.30;;;20.20;99.90;;;;;;4970650;28;20945;-71
2023/06/18 04:49:12;;;;;;;6.10;5.80;;;20.70;99.90;;;;;;4966489;28;20869;-71
2023/06/18 04:51:39;;;;;;;5.37;5.07;;;21.00;99.90;;;;;;4969401;28;20475;-71
2023/06/18 04:54:07;;;;;;;5.73;5.33;;;21.20;99.90;;;;;;4973834;28;20523;-72
2023/06/18 04:56:34;;;;;;;6.00;5.60;;;21.40;99.90;;;;;;4975366;28;20801;-72
2023/06/18 04:59:01;;;;;;;5.93;5.57;;;21.70;99.90;;;;;;4971163;28;20483;-70
2023/06/18 05:01:28;;;;;;;6.70;6.20;;;22.10;99.90;;;;;;4971900;28;20823;-71
2023/06/18 05:03:54;;;;;;;6.53;6.13;;;22.40;99.90;;;;;;4973139;28;20482;-71
2023/06/18 05:06:21;;;;;;;5.30;5.10;;;22.60;99.90;;;;;;4973910;28;20490;-70
2023/06/18 05:08:49;;;;;;;6.43;6.03;;;23.00;99.90;;;;;;4972229;28;20470;-72
2023/06/18 05:11:18;;;;;;;6.40;6.00;;;23.00;99.90;;;;;;4970233;28;20573;-69
2023/06/18 05:13:44;;;;;;;6.10;5.80;;;23.20;99.90;;;;;;4972308;28;20490;-71
2023/06/18 05:16:12;;;;;;;5.87;5.57;;;23.40;99.90;;;;;;4973595;28;20526;-71
2023/06/18 05:18:38;;;;;;;6.60;6.20;;;23.70;99.90;;;;;;4971269;28;20475;-71
2023/06/18 05:21:05;;;;;;;5.50;5.20;;;23.90;99.90;;;;;;4973642;28;21077;-71
2023/06/18 05:23:32;;;;;;;5.60;5.30;;;23.70;99.90;;;;;;4972593;28;20476;-71
2023/06/18 05:25:59;;;;;;;5.93;5.63;;;23.80;99.90;;;;;;4968523;28;20835;-71
2023/06/18 05:28:27;;;;;;;6.00;5.70;;;24.00;99.90;;;;;;4972858;28;20510;-71
2023/06/18 05:30:53;;;;;;;5.23;4.93;;;24.00;99.90;;;;;;4972382;28;20472;-71
2023/06/18 05:33:20;;;;;;;6.43;6.03;;;24.10;99.90;;;;;;4972028;28;20582;-71
2023/06/18 05:35:47;;;;;;;5.10;4.90;;;24.40;99.90;;;;;;4972895;28;20487;-71
2023/06/18 05:38:13;;;;;;;6.70;6.30;;;24.60;99.90;;;;;;4972790;28;21187;-72
2023/06/18 05:40:40;;;;;;;5.00;4.80;;;24.70;99.90;;;;;;4972301;28;20472;-71
2023/06/18 05:43:07;;;;;;;5.30;4.97;;;24.70;99.90;;;;;;4969269;28;20472;-71
2023/06/18 05:45:35;;;;;;;5.07;4.87;;;25.00;99.90;;;;;;4972374;28;20486;-71
2023/06/18 05:48:02;;;;;;;5.60;5.30;;;25.00;99.90;;;;;;4971507;28;20809;-70
2023/06/18 05:50:28;;;;;;;5.00;4.70;;;25.00;99.90;;;;;;4974012;28;20566;-70
2023/06/18 05:52:55;;;;;;;4.90;4.60;;;25.00;99.90;;;;;;4971546;28;20487;-70
2023/06/18 05:55:22;;;;;;;4.60;4.40;;;25.20;99.90;;;;;;4972246;28;20991;-71
2023/06/18 05:57:50;;;;;;;4.70;4.50;;;25.60;99.90;;;;;;4970053;28;20472;-70
2023/06/18 06:00:17;;;;;;;4.37;4.23;;;26.10;99.90;;;;;;4970814;28;20472;-70
2023/06/18 06:02:46;;;;;;;3.93;3.83;;;26.40;99.90;;;;;;4969453;28;20542;-71
2023/06/18 06:05:13;;;;;;;3.83;3.73;;;26.20;99.90;;;;;;4971887;28;21182;-70
2023/06/18 06:07:39;;;;;;;4.43;4.23;;;26.00;99.90;;;;;;4966193;28;20824;-71
2023/06/18 06:10:07;;;;;;;4.67;4.37;;;26.30;99.90;;;;;;4972510;28;20468;-70
2023/06/18 06:12:33;;;;;;;3.50;3.40;;;26.60;99.90;;;;;;4965638;28;20499;-70
2023/06/18 06:15:00;;;;;;;3.70;3.60;;;26.80;99.90;;;;;;4970085;28;20508;-70
2023/06/18 06:17:27;;;;;;;3.40;3.40;;;27.10;99.90;;;;;;4970283;28;20491;-69
2023/06/18 06:19:55;;;;;;;3.17;3.17;;;27.60;99.90;;;;;;4971089;28;21084;-69
2023/06/18 06:22:21;;;;;;;3.00;2.90;;;27.80;99.90;;;;;;4972663;28;20457;-69
2023/06/18 06:24:48;;;;;;;3.03;2.93;;;27.90;99.00;;;;;;4970517;28;20498;-70
2023/06/18 06:27:15;;;;;;;3.30;3.20;;;28.20;98.70;;;;;;4971872;28;20480;-69
2023/06/18 06:29:41;;;;;;;3.50;3.30;;;28.50;97.50;;;;;;4971310;28;20843;-70
2023/06/18 06:32:08;;;;;;;3.33;3.23;;;28.60;97.10;;;;;;4971315;28;20479;-70
2023/06/18 06:34:35;;;;;;;3.37;3.27;;;28.70;96.80;;;;;;4966769;28;20495;-71
2023/06/18 06:37:03;;;;;;;3.30;3.30;;;29.10;96.00;;;;;;4970120;28;20575;-69
2023/06/18 06:39:30;;;;;;;3.23;3.13;;;29.10;95.10;;;;;;4966786;28;20467;-70
2023/06/18 06:41:56;;;;;;;3.17;3.03;;;29.10;95.60;;;;;;4972002;28;20471;-71
2023/06/18 06:44:23;;;;;;;3.03;2.93;;;29.00;95.20;;;;;;4971606;28;20480;-71
2023/06/18 06:46:50;;;;;;;2.43;2.43;;;29.10;95.20;;;;;;4968142;28;20475;-72
2023/06/18 06:49:16;;;;;;;3.50;3.40;;;29.10;95.00;;;;;;4964484;28;20579;-70
2023/06/18 06:51:43;;;;;;;3.00;3.00;;;29.30;95.20;;;;;;4966762;28;20475;-72
2023/06/18 06:54:11;;;;;;;2.53;2.53;;;29.80;94.70;;;;;;4969927;28;20498;-71
2023/06/18 06:56:38;;;;;;;2.00;2.00;;;29.70;93.30;;;;;;4971313;28;20486;-70
2023/06/18 06:59:05;;;;;;;2.57;2.57;;;29.60;93.20;;;;;;4969325;28;20464;-71
2023/06/18 07:01:31;;;;;;;2.40;2.40;;;29.80;93.20;;;;;;4972612;28;20903;-72
2023/06/18 07:03:58;;;;;;;2.23;2.23;;;30.10;92.60;;;;;;4969807;28;20478;-70
2023/06/18 07:06:25;;;;;;;2.30;2.30;;;30.00;92.00;;;;;;4967812;28;20480;-70
2023/06/18 07:08:52;;;;;;;2.23;2.23;;;30.20;91.70;;;;;;4968273;28;20854;-72
2023/06/18 07:11:20;;;;;;;2.43;2.33;;;30.20;91.20;;;;;;4965073;28;20487;-71
2023/06/18 07:13:47;;;;;;;2.50;2.50;;;30.50;91.20;;;;;;4966609;28;20499;-70
2023/06/18 07:16:13;;;;;;;2.30;2.30;;;30.80;90.60;;;;;;4969192;28;20500;-72
2023/06/18 07:18:40;;;;;;;3.00;3.00;;;30.50;90.70;;;;;;4970783;28;20460;-70
2023/06/18 07:21:07;;;;;;;2.30;2.30;;;30.60;90.70;;;;;;4968504;28;20939;-70
2023/06/18 07:23:34;;;;;;;2.90;2.80;;;30.70;90.40;;;;;;4963404;28;20460;-71
2023/06/18 07:26:00;;;;;;;2.33;2.33;;;30.90;90.20;;;;;;4967118;28;20487;-71
2023/06/18 07:28:30;;;;;;;1.87;1.87;;;30.70;88.40;;;;;;4969950;28;20460;-71
2023/06/18 07:30:57;;;;;;;2.23;2.23;;;30.80;89.40;;;;;;4965590;28;20964;-71
2023/06/18 07:33:23;;;;;;;2.13;2.13;;;31.00;89.60;;;;;;4969822;28;20468;-70
2023/06/18 07:35:50;;;;;;;2.30;2.30;;;31.00;88.60;;;;;;4962510;28;20496;-71
2023/06/18 07:38:17;;;;;;;2.27;2.27;;;31.20;88.70;;;;;;4968985;28;20480;-70
2023/06/18 07:40:43;;;;;;;2.00;2.00;;;31.40;86.30;;;;;;4970905;28;20478;-70
2023/06/18 07:43:11;;;;;;;2.33;2.33;;;31.30;87.10;;;;;;4971457;28;20464;-71
2023/06/18 07:45:39;;;;;;;2.00;2.00;;;31.20;86.80;;;;;;4969131;28;20492;-71
2023/06/18 07:48:07;;;;;;;2.30;2.27;;;31.00;85.50;;;;;;4970398;28;20464;-71
2023/06/18 07:50:34;;;;;;;2.00;2.00;;;31.00;84.60;;;;;;4962268;28;20470;-72
2023/06/18 07:53:01;;;;;;;2.07;2.07;;;30.90;85.40;;;;;;4966942;28;20583;-72
2023/06/18 07:55:28;;;;;;;2.07;2.07;;;31.10;84.20;;;;;;4970996;28;20487;-72
2023/06/18 07:57:55;;;;;;;2.40;2.40;;;31.10;83.50;;;;;;4971457;28;20470;-72
2023/06/18 08:00:22;;;;;;;2.10;2.10;;;31.10;82.70;;;;;;4971748;28;20835;-71
2023/06/18 08:02:51;;;;;;;2.17;2.17;;;31.60;82.90;;;;;;4969700;28;20471;-72
2023/06/18 08:05:18;;;;;;;2.20;2.20;;;31.60;81.90;;;;;;4970576;28;20484;-72
2023/06/18 08:07:45;;;;;;;2.20;2.20;;;31.10;81.80;;;;;;4970513;28;20475;-71
2023/06/18 08:10:11;;;;;;;2.07;2.07;;;30.90;81.40;;;;;;4971456;28;20459;-71
2023/06/18 08:12:38;;;;;;;2.10;2.10;;;31.30;80.90;;;;;;4967456;28;20479;-72
2023/06/18 08:15:07;;;;;;;2.03;2.03;;;31.10;79.50;;;;;;4971199;28;21046;-74
2023/06/18 08:17:33;;;;;;;2.23;2.23;;;30.70;80.50;;;;;;4951801;28;20460;-72
2023/06/18 08:20:01;;;;;;;2.07;2.07;;;30.90;81.40;;;;;;4961136;28;20476;-71
2023/06/18 08:22:28;;;;;;;2.37;2.27;;;30.80;82.00;;;;;;4968912;28;20880;-71
2023/06/18 08:24:55;;;;;;;2.20;2.20;;;30.90;81.60;;;;;;4971118;28;20488;-72
2023/06/18 08:27:22;;;;;;;2.40;2.40;;;30.80;81.00;;;;;;4974423;28;20514;-72
2023/06/18 08:29:48;;;;;;;2.17;2.17;;;30.60;81.00;;;;;;4975118;28;20471;-71
2023/06/18 08:32:15;;;;;;;1.83;1.83;;;30.50;80.90;;;;;;4971943;28;20467;-71
2023/06/18 08:34:42;;;;;;;1.80;1.80;;;30.50;80.10;;;;;;4972375;28;21021;-71
2023/06/18 08:37:11;;;;;;;1.53;1.53;;;30.20;79.90;;;;;;4972705;28;20950;-71
2023/06/18 08:39:37;;;;;;;2.00;2.00;;;30.00;79.30;;;;;;4970085;28;20956;-71
2023/06/18 08:42:05;;;;;;;1.90;1.90;;;30.00;79.50;;;;;;4973290;28;20503;-71
2023/06/18 08:44:34;;;;;;;2.13;2.13;;;30.40;78.50;;;;;;4973973;28;20479;-72
2023/06/18 08:47:03;;;;;;;1.73;1.73;;;30.30;76.00;;;;;;4972289;28;20468;-71
2023/06/18 08:49:31;;;;;;;2.30;2.30;;;30.20;77.10;;;;;;4967303;28;20515;-71
2023/06/18 08:52:00;;;;;;;1.97;1.97;;;30.00;76.40;;;;;;4971181;28;20864;-71
2023/06/18 08:54:33;;;;;;;1.70;1.70;;;30.00;76.00;;;;;;4969325;28;20969;-71
2023/06/18 08:57:06;;;;;;;1.70;1.70;;;30.00;72.20;;;;;;4969823;28;20479;-73
2023/06/18 08:59:34;;;;;;;1.50;1.50;;;30.20;73.00;;;;;;4969394;28;20468;-72
2023/06/18 09:02:01;;;;;;;1.97;1.97;;;30.40;72.80;;;;;;4974281;28;20470;-71
2023/06/18 09:04:29;;;;;;;1.43;1.43;;;30.40;74.30;;;;;;4973704;28;20488;-71
2023/06/18 09:06:56;;;;;;;1.80;1.80;;;30.40;75.00;;;;;;4974521;28;20499;-72
2023/06/18 09:09:23;;;;;;;2.10;2.10;;;30.30;75.10;;;;;;4972654;28;20471;-71
2023/06/18 09:11:51;;;;;;;2.07;2.07;;;30.20;75.60;;;;;;4969962;28;20471;-71
2023/06/18 09:14:18;;;;;;;1.80;1.80;;;29.80;75.70;;;;;;4973333;28;20502;-71
2023/06/18 09:16:45;;;;;;;2.10;2.10;;;30.00;76.80;;;;;;4972974;28;20498;-71
2023/06/18 09:19:12;;;;;;;2.67;2.67;;;30.00;76.10;;;;;;4970545;28;20471;-71
2023/06/18 09:21:40;;;;;;;2.03;2.03;;;29.40;75.70;;;;;;4971452;28;20551;-70
2023/06/18 09:24:08;;;;;;;1.80;1.70;;;29.10;77.00;;;;;;4968288;28;20475;-71
2023/06/18 09:26:35;;;;;;;2.40;2.40;;;29.10;77.40;;;;;;4973553;28;20471;-71
2023/06/18 09:29:07;;;;;;;2.00;1.90;;;29.00;77.10;;;;;;4972705;28;20479;-72
2023/06/18 09:31:35;;;;;;;1.60;1.60;;;29.00;77.40;;;;;;4973094;28;20463;-70
2023/06/18 09:34:13;;;;;;;2.00;2.00;;;29.10;73.40;;;;;;4970039;28;20487;-71
2023/06/18 09:36:40;;;;;;;1.63;1.63;;;28.80;73.90;;;;;;4972886;28;20566;-71
2023/06/18 09:39:15;;;;;;;2.27;2.27;;;28.50;74.70;;;;;;4968927;28;20891;-70
2023/06/18 09:41:43;;;;;;;1.90;1.90;;;28.40;70.80;;;;;;4972527;28;20478;-69
2023/06/18 09:44:12;;;;;;;2.13;2.13;;;28.40;71.60;;;;;;4971693;28;20556;-69
2023/06/18 09:46:39;;;;;;;2.57;2.47;;;28.50;76.50;;;;;;4970087;28;20475;-71
2023/06/18 09:49:06;;;;;;;2.10;2.10;;;28.40;76.70;;;;;;4969916;28;20479;-71
2023/06/18 09:51:39;;;;;;;2.40;2.30;;;28.40;75.40;;;;;;4971168;28;20498;-70
2023/06/18 09:54:06;;;;;;;1.60;1.60;;;28.40;75.10;;;;;;4971872;28;20464;-70
2023/06/18 09:56:33;;;;;;;2.50;2.40;;;28.30;75.00;;;;;;4966471;28;20468;-70
2023/06/18 09:59:01;;;;;;;2.43;2.33;;;28.00;75.40;;;;;;4971480;28;20475;-70
2023/06/18 10:01:29;;;;;;;2.43;2.43;;;27.70;77.20;;;;;;4964743;28;20480;-70
2023/06/18 10:03:56;;;;;;;2.10;2.10;;;27.70;79.10;;;;;;4970656;28;20571;-70
2023/06/18 10:06:24;;;;;;;2.17;2.17;;;27.80;77.50;;;;;;4969915;28;20491;-70
2023/06/18 10:08:53;;;;;;;2.70;2.60;;;27.70;77.20;;;;;;4971040;28;20493;-71
2023/06/18 10:11:21;;;;;;;1.77;1.77;;;27.50;76.70;;;;;;4971336;28;20476;-70
2023/06/18 10:13:49;;;;;;;2.90;2.80;;;27.20;78.20;;;;;;4968776;28;20473;-69
2023/06/18 10:16:18;;;;;;;1.90;1.90;;;27.20;78.50;;;;;;4972608;28;20501;-69
2023/06/18 10:18:54;;;;;;;2.17;2.07;;;27.30;77.30;;;;;;4966322;28;20986;-69
2023/06/18 10:21:23;;;;;;;1.97;1.97;;;27.40;78.20;;;;;;4972412;28;20833;-72
2023/06/18 10:23:54;;;;;;;2.17;2.17;;;27.50;76.70;;;;;;4970898;28;20465;-69
2023/06/18 10:26:22;;;;;;;2.50;2.50;;;27.30;75.50;;;;;;4971389;28;20537;-69
2023/06/18 10:28:50;;;;;;;1.70;1.70;;;27.20;76.80;;;;;;4971996;28;20463;-71
2023/06/18 10:31:19;;;;;;;2.67;2.30;;;27.20;77.40;;;;;;4972552;28;20578;-70
2023/06/18 10:33:48;;;;;;;2.10;2.00;;;27.30;76.30;;;;;;4972489;28;20471;-70
2023/06/18 10:36:16;;;;;;;2.23;2.20;;;27.40;76.70;;;;;;4972640;28;20496;-70
2023/06/18 10:38:44;;;;;;;1.73;1.73;;;27.50;75.10;;;;;;4970693;28;20982;-70
2023/06/18 10:41:12;;;;;;;3.17;3.00;;;27.50;74.30;;;;;;4967599;28;20480;-69
2023/06/18 10:43:42;;;;;;;2.30;2.30;;;27.50;74.70;;;;;;4971941;28;20596;-70
2023/06/18 10:46:10;;;;;;;2.13;2.07;;;27.40;74.40;;;;;;4972268;28;20518;-71
2023/06/18 10:48:37;;;;;;;2.20;2.20;;;27.40;74.80;;;;;;4968934;28;20498;-70
2023/06/18 10:51:16;;;;;;;2.17;2.17;;;27.50;75.10;;;;;;4968461;28;20482;-71
2023/06/18 10:53:44;;;;;;;2.30;2.30;;;27.50;74.70;;;;;;4967753;28;20466;-71
2023/06/18 10:56:11;;;;;;;1.97;1.97;;;27.40;75.90;;;;;;4967388;28;20488;-69
2023/06/18 10:58:41;;;;;;;2.60;2.50;;;27.50;75.10;;;;;;4969066;28;20472;-69
2023/06/18 11:01:23;;;;;;;1.77;1.77;;;27.60;75.00;;;;;;4962794;28;20580;-70
2023/06/18 11:04:01;;;;;;;3.00;2.77;;;27.60;75.40;;;;;;4970413;28;21135;-69
2023/06/18 11:06:30;;;;;;;2.13;2.13;;;27.70;73.90;;;;;;4963716;28;20503;-69
2023/06/18 11:08:57;;;;;;;2.33;2.23;;;27.80;74.10;;;;;;4969367;28;20513;-69
2023/06/18 11:11:25;;;;;;;2.97;2.87;;;27.80;74.20;;;;;;4970040;28;20478;-71
2023/06/18 11:13:53;;;;;;;2.43;2.43;;;27.80;74.10;;;;;;4971932;28;20471;-71
2023/06/18 11:16:21;;;;;;;2.17;2.07;;;27.90;73.80;;;;;;4966985;28;20497;-71
2023/06/18 11:18:49;;;;;;;1.60;1.60;;;27.90;72.10;;;;;;4963728;28;20470;-71
2023/06/18 11:21:18;;;;;;;2.67;2.57;;;27.90;72.50;;;;;;4971560;28;20481;-71
2023/06/18 11:23:48;;;;;;;2.40;2.33;;;28.00;73.60;;;;;;4965522;28;20481;-71
2023/06/18 11:26:15;;;;;;;2.60;2.50;;;28.20;72.10;;;;;;4968299;28;21028;-71
2023/06/18 11:28:42;;;;;;;2.60;2.50;;;28.30;73.00;;;;;;4963644;28;20503;-72
2023/06/18 11:31:09;;;;;;;2.57;2.57;;;28.20;71.40;;;;;;4966513;28;20470;-71
2023/06/18 11:33:36;;;;;;;2.23;2.20;;;28.20;73.00;;;;;;4966297;28;20500;-72
2023/06/18 11:36:10;;;;;;;2.23;2.17;;;28.30;72.70;;;;;;4966704;28;20502;-72
2023/06/18 11:38:38;;;;;;;2.37;2.27;;;28.40;73.00;;;;;;4970214;28;20467;-71
2023/06/18 11:41:07;;;;;;;3.47;2.70;;;28.50;73.30;;;;;;4968658;28;20835;-72
2023/06/18 11:43:47;;;;;;;2.00;2.00;;;28.50;71.70;;;;;;4970306;28;20836;-72
2023/06/18 11:46:27;;;;;;;2.47;2.47;;;28.30;71.20;;;;;;4969843;28;20515;-73
2023/06/18 11:48:55;;;;;;;2.33;2.27;;;28.10;71.50;;;;;;4968510;28;20594;-72
2023/06/18 11:51:24;;;;;;;3.30;3.20;;;28.00;71.60;;;;;;4970525;28;20963;-73
2023/06/18 11:53:52;;;;;;;2.37;2.33;;;28.00;73.20;;;;;;4961518;28;20613;-73
2023/06/18 11:56:23;;;;;;;2.57;2.50;;;28.10;73.90;;;;;;4962658;28;20506;-73
2023/06/18 11:58:50;;;;;;;2.00;2.00;;;28.10;72.60;;;;;;4967605;28;20484;-72
2023/06/18 12:01:17;;;;;;;2.33;2.33;;;28.30;69.60;;;;;;4968194;28;20468;-73
2023/06/18 12:03:44;;;;;;;2.83;2.73;;;28.30;69.70;;;;;;4966450;28;20821;-73
2023/06/18 12:06:14;;;;;;;2.20;2.20;;;28.50;71.00;;;;;;4967820;28;20484;-72
2023/06/18 12:08:45;;;;;;;2.50;2.40;;;28.60;70.30;;;;;;4970228;28;20467;-72
2023/06/18 12:11:24;;;;;;;2.33;2.33;;;28.60;68.80;;;;;;4963467;28;20513;-71
2023/06/18 12:13:52;;;;;;;2.60;2.50;;;28.50;70.20;;;;;;4969551;28;20478;-71
2023/06/18 12:16:25;;;;;;;2.87;2.87;;;28.50;69.40;;;;;;4970968;28;20483;-71
2023/06/18 12:18:58;;;;;;;2.60;2.50;;;28.60;69.50;;;;;;4969418;28;20472;-71
2023/06/18 12:21:25;;;;;;;2.30;2.27;;;28.60;68.50;;;;;;4964163;28;20474;-71
2023/06/18 12:23:53;;;;;;;1.53;1.53;;;28.70;70.40;;;;;;4968697;28;20468;-71
2023/06/18 12:26:22;;;;;;;2.37;2.27;;;28.60;68.40;;;;;;4970278;28;20487;-71
2023/06/18 12:28:49;;;;;;;2.30;2.20;;;28.60;68.10;;;;;;4968459;28;20843;-71
2023/06/18 12:31:16;;;;;;;2.57;2.47;;;28.80;68.30;;;;;;4970778;28;20473;-71
2023/06/18 12:33:44;;;;;;;2.53;2.37;;;28.70;68.20;;;;;;4970243;28;20471;-72
2023/06/18 12:36:11;;;;;;;2.00;2.00;;;28.70;68.00;;;;;;4970553;28;20492;-72
2023/06/18 12:38:41;;;;;;;2.77;2.77;;;28.90;68.10;;;;;;4970868;28;20468;-72
2023/06/18 12:41:08;;;;;;;2.53;2.43;;;28.60;67.70;;;;;;4970469;28;20475;-72
2023/06/18 12:43:42;;;;;;;2.57;2.47;;;28.70;67.90;;;;;;4969580;28;20479;-72
2023/06/18 12:46:09;;;;;;;2.30;2.30;;;28.90;68.40;;;;;;4965778;28;20487;-72
2023/06/18 12:48:40;;;;;;;2.50;2.50;;;28.90;66.60;;;;;;4969613;28;20939;-71
2023/06/18 12:51:07;;;;;;;2.50;2.40;;;29.00;66.60;;;;;;4969615;28;20890;-71
2023/06/18 12:53:34;;;;;;;2.67;2.67;;;29.00;66.40;;;;;;4968676;28;20475;-71
2023/06/18 12:56:18;;;;;;;2.10;2.10;;;29.00;66.10;;;;;;4970511;28;20509;-71
2023/06/18 12:58:47;;;;;;;2.50;2.40;;;28.90;66.40;;;;;;4965200;28;20467;-71
2023/06/18 13:01:14;;;;;;;3.03;2.93;;;28.90;66.70;;;;;;4962440;28;20466;-72
2023/06/18 13:03:41;;;;;;;2.07;2.07;;;28.80;67.50;;;;;;4969657;28;20544;-72
2023/06/18 13:06:08;;;;;;;2.90;2.70;;;28.80;67.50;;;;;;4971386;28;20853;-72
2023/06/18 13:08:36;;;;;;;2.60;2.50;;;29.00;68.20;;;;;;4963706;28;20931;-72
2023/06/18 13:11:04;;;;;;;2.60;2.50;;;29.10;68.30;;;;;;4963888;28;20474;-72
2023/06/18 13:13:31;;;;;;;2.77;2.67;;;29.10;67.70;;;;;;4971478;28;20524;-72
2023/06/18 13:15:59;;;;;;;2.73;2.73;;;29.20;67.70;;;;;;4973532;28;20498;-72
2023/06/18 13:18:26;;;;;;;3.27;3.07;;;29.10;67.50;;;;;;4970157;28;20464;-72
2023/06/18 13:20:54;;;;;;;2.00;2.00;;;29.00;66.80;;;;;;4972775;28;20471;-72
2023/06/18 13:23:22;;;;;;;2.60;2.57;;;29.00;66.70;;;;;;4972501;28;20474;-72
2023/06/18 13:25:48;;;;;;;3.30;3.10;;;28.90;66.00;;;;;;4969611;28;21066;-71
2023/06/18 13:28:16;;;;;;;3.27;3.13;;;28.90;66.40;;;;;;4972676;28;20562;-73
2023/06/18 13:30:43;;;;;;;2.93;2.80;;;29.00;67.10;;;;;;4974184;28;20473;-72
2023/06/18 13:33:11;;;;;;;2.50;2.50;;;29.00;64.60;;;;;;4970980;28;20482;-73
2023/06/18 13:35:38;;;;;;;3.13;3.10;;;29.00;64.80;;;;;;4973326;28;20490;-73
2023/06/18 13:38:05;;;;;;;4.40;3.20;;;29.00;64.40;;;;;;4971657;28;20475;-73
2023/06/18 13:40:32;;;;;;;1.93;1.93;;;29.10;65.90;;;;;;4971489;28;20479;-73
2023/06/18 13:42:59;;;;;;;2.37;2.20;;;29.20;62.90;;;;;;4970536;28;20475;-73
2023/06/18 13:45:25;;;;;;;2.57;2.47;;;29.30;64.70;;;;;;4974057;28;20489;-73
2023/06/18 13:47:52;;;;;;;3.13;2.93;;;29.50;64.90;;;;;;4971480;28;20477;-73
2023/06/18 13:50:20;;;;;;;2.37;2.37;;;29.30;64.40;;;;;;4972065;28;20469;-73
2023/06/18 13:52:47;;;;;;;2.83;2.73;;;29.10;66.00;;;;;;4968064;28;20489;-72
2023/06/18 13:55:14;;;;;;;2.90;2.70;;;29.10;65.70;;;;;;4968988;28;20513;-72
2023/06/18 13:57:40;;;;;;;2.07;1.97;;;29.10;65.20;;;;;;4965380;28;20468;-72
2023/06/18 14:00:09;;;;;;;2.80;2.70;;;29.10;64.80;;;;;;4970944;28;20472;-72
2023/06/18 14:02:36;;;;;;;3.03;2.93;;;29.20;65.50;;;;;;4966693;28;20481;-72
2023/06/18 14:05:02;;;;;;;2.87;2.70;;;29.20;64.40;;;;;;4966059;28;20495;-72
2023/06/18 14:07:32;;;;;;;2.50;2.40;;;29.10;63.50;;;;;;4967354;28;20465;-72
2023/06/18 14:09:59;;;;;;;2.67;2.57;;;29.20;64.10;;;;;;4970436;28;20946;-72
2023/06/18 14:12:26;;;;;;;1.77;1.77;;;29.20;64.40;;;;;;4971151;28;20940;-72
2023/06/18 14:14:53;;;;;;;2.53;2.47;;;29.20;64.40;;;;;;4967620;28;20648;-72
2023/06/18 14:17:20;;;;;;;2.50;2.40;;;29.20;64.00;;;;;;4969727;28;20485;-71
2023/06/18 14:19:47;;;;;;;2.20;2.20;;;29.40;64.40;;;;;;4972140;28;20462;-73
2023/06/18 14:22:13;;;;;;;2.50;2.40;;;29.40;64.00;;;;;;4971625;28;20526;-72
2023/06/18 14:24:42;;;;;;;2.40;2.30;;;29.40;62.40;;;;;;4970176;28;20499;-72
2023/06/18 14:27:10;;;;;;;2.97;2.80;;;29.60;63.30;;;;;;4972926;28;20458;-73
2023/06/18 14:29:36;;;;;;;2.80;2.70;;;29.70;63.00;;;;;;4971548;28;20498;-71
2023/06/18 14:32:03;;;;;;;1.93;1.93;;;29.80;62.30;;;;;;4970155;28;20474;-72
2023/06/18 14:34:30;;;;;;;2.17;2.17;;;29.80;61.40;;;;;;4969568;28;20493;-71
2023/06/18 14:36:58;;;;;;;2.90;2.80;;;29.80;62.00;;;;;;4972687;28;20486;-74
2023/06/18 14:39:25;;;;;;;2.40;2.40;;;29.60;62.40;;;;;;4972328;28;20976;-72
2023/06/18 14:41:53;;;;;;;2.17;2.13;;;29.50;62.20;;;;;;4971475;28;20470;-72
2023/06/18 14:44:20;;;;;;;2.83;2.73;;;29.40;63.00;;;;;;4970819;28;20466;-73
2023/06/18 14:46:47;;;;;;;2.30;2.20;;;29.30;61.60;;;;;;4971648;28;20489;-73
2023/06/18 14:49:14;;;;;;;2.80;2.60;;;29.10;62.50;;;;;;4972527;28;20511;-72
2023/06/18 14:51:40;;;;;;;2.93;2.83;;;29.10;61.60;;;;;;4972346;28;20465;-72
2023/06/18 14:54:12;;;;;;;2.10;2.00;;;29.20;61.00;;;;;;4970788;28;20474;-72
2023/06/18 14:56:40;;;;;;;1.83;1.83;;;29.30;61.10;;;;;;4966463;28;20484;-72
2023/06/18 14:59:08;;;;;;;2.30;2.20;;;29.50;60.60;;;;;;4970657;28;20469;-72
2023/06/18 15:01:36;;;;;;;2.03;2.03;;;29.50;60.20;;;;;;4963481;28;20904;-72
2023/06/18 15:04:03;;;;;;;1.97;1.97;;;29.50;61.60;;;;;;4968435;28;21069;-72
2023/06/18 15:06:31;;;;;;;2.30;2.20;;;29.60;60.70;;;;;;4971191;28;20469;-72
2023/06/18 15:08:58;;;;;;;2.00;2.00;;;29.70;59.90;;;;;;4971082;28;20561;-72
2023/06/18 15:11:26;;;;;;;2.53;2.43;;;29.70;59.10;;;;;;4972737;28;20460;-71
2023/06/18 15:13:53;;;;;;;7.93;2.90;;;29.70;59.20;;;;;;4969997;28;20477;-72
2023/06/18 15:16:21;;;;;;;2.10;2.00;;;29.70;58.70;;;;;;4970738;28;20493;-73
2023/06/18 15:18:47;;;;;;;2.23;2.23;;;29.90;59.70;;;;;;4969080;28;20482;-73
2023/06/18 15:21:14;;;;;;;2.50;2.40;;;30.00;58.80;;;;;;4967816;28;20481;-72
2023/06/18 15:23:41;;;;;;;2.10;2.10;;;30.10;58.70;;;;;;4969860;28;20478;-72
2023/06/18 15:26:07;;;;;;;2.67;2.57;;;30.00;58.00;;;;;;4972162;28;20856;-72
2023/06/18 15:28:34;;;;;;;2.50;2.40;;;30.20;58.20;;;;;;4967359;28;20479;-73
2023/06/18 15:31:01;;;;;;;2.70;2.60;;;30.20;58.40;;;;;;4969858;28;20482;-73
2023/06/18 15:33:29;;;;;;;1.97;1.97;;;30.20;58.10;;;;;;4969930;28;20538;-73
2023/06/18 15:35:56;;;;;;;3.10;3.00;;;30.00;58.20;;;;;;4967700;28;20492;-72
2023/06/18 15:38:22;;;;;;;1.77;1.77;;;29.80;58.30;;;;;;4971013;28;20474;-72
2023/06/18 15:40:49;;;;;;;2.10;2.10;;;29.80;58.10;;;;;;4971182;28;20477;-72
2023/06/18 15:43:16;;;;;;;1.80;1.80;;;29.90;58.70;;;;;;4963637;28;20469;-73
2023/06/18 15:45:43;;;;;;;1.90;1.90;;;30.00;58.30;;;;;;4970082;28;20500;-72
2023/06/18 15:48:12;;;;;;;2.20;2.10;;;30.00;58.80;;;;;;4970298;28;20465;-73
2023/06/18 15:50:41;;;;;;;2.30;2.23;;;29.80;58.00;;;;;;4961691;28;20544;-72
2023/06/18 15:53:07;;;;;;;2.13;2.13;;;29.60;58.30;;;;;;4965385;28;20478;-73
2023/06/18 15:55:34;;;;;;;1.73;1.73;;;29.40;59.10;;;;;;4966965;28;20517;-73
2023/06/18 15:58:01;;;;;;;2.23;2.23;;;29.30;59.30;;;;;;4964137;28;20505;-73
2023/06/18 16:00:27;;;;;;;1.93;1.93;;;29.20;59.40;;;;;;4970554;28;20473;-73
2023/06/18 16:02:54;;;;;;;2.17;2.17;;;29.10;59.40;;;;;;4967016;28;20480;-73
2023/06/18 16:05:22;;;;;;;3.30;3.10;;;29.20;59.20;;;;;;4965936;28;20497;-73
2023/06/18 16:07:50;;;;;;;2.70;2.60;;;29.10;59.90;;;;;;4964888;28;20472;-72
2023/06/18 16:10:17;;;;;;;2.17;2.10;;;29.20;61.20;;;;;;4964261;28;20476;-72
2023/06/18 16:12:44;;;;;;;2.10;2.10;;;29.20;59.00;;;;;;4966659;28;20478;-72
2023/06/18 16:15:12;;;;;;;2.17;2.17;;;29.10;59.10;;;;;;4969907;28;20844;-73
2023/06/18 16:17:39;;;;;;;2.10;2.10;;;29.20;59.70;;;;;;4969885;28;20491;-73
2023/06/18 16:20:07;;;;;;;1.90;1.90;;;29.30;60.40;;;;;;4968144;28;20480;-72
2023/06/18 16:22:33;;;;;;;1.70;1.70;;;29.50;59.50;;;;;;4969210;28;20549;-72
2023/06/18 16:25:02;;;;;;;2.30;2.30;;;29.60;57.80;;;;;;4967909;28;21091;-72
2023/06/18 16:27:28;;;;;;;2.47;2.27;;;29.70;58.40;;;;;;4965655;28;20482;-72
2023/06/18 16:29:55;;;;;;;1.97;1.97;;;29.70;58.30;;;;;;4969770;28;20466;-72
2023/06/18 16:32:22;;;;;;;2.00;2.00;;;29.80;58.00;;;;;;4970959;28;20467;-73
2023/06/18 16:34:49;;;;;;;1.80;1.80;;;29.80;58.30;;;;;;4967460;28;20498;-72
2023/06/18 16:37:16;;;;;;;2.33;2.23;;;29.70;58.50;;;;;;4970842;28;20509;-72
2023/06/18 16:39:43;;;;;;;2.47;2.37;;;29.40;58.10;;;;;;4969364;28;20857;-72
2023/06/18 16:42:11;;;;;;;2.10;2.00;;;29.20;58.50;;;;;;4962815;28;20469;-72
2023/06/18 16:44:37;;;;;;;2.20;2.10;;;29.00;58.90;;;;;;4969165;28;21244;-72
2023/06/18 16:47:05;;;;;;;1.97;1.97;;;28.90;59.40;;;;;;4966452;28;20472;-72
2023/06/18 16:49:31;;;;;;;2.10;2.10;;;28.80;58.80;;;;;;4969148;28;20476;-72
2023/06/18 16:52:00;;;;;;;2.30;2.20;;;28.60;59.10;;;;;;4972059;28;20484;-72